x

Cape Edgecumbe - 25nm Ssw Of Cape Edgecumbe, Ak (46084) Wave Buoy

6:50am - Tue 3rd Mar 2015 All times are AKST. -9 hours from GMT.

  • Sig Wave height 3.3ft
  • Peak Period 5s
  • Average Period 4s
  • Wind
    13mph, 18mph gusts
  • Sea Temp 45°f
  • Air Temp 45°f
  • Sea Pressure 1023.6mb
  • Cape Edgecumbe - 25nm Ssw Of Cape Edgecumbe, Ak
  • Cape Edgecumbe - 25nm Ssw Of Cape Edgecumbe, Ak

More Historic Weather Station data

Upgrade to MSW Pro to gain access to the past 30 days of data for over 8000 Wavebouys and Weather Stations around the globe.

Join Pro

Comparision Forecast

View Surf forecast
   
Tue 03/03 6:50am 3.5ft 5s 4s 13 18 mph 1023.6mb 45f 45f
5:50am 3.5ft 4s 4s 18 20 mph 1023.5mb 45f 46f
4:50am 3ft 4s 4s 16 20 mph 1024mb 46f 45f
3:50am 2.5ft 3s 4s 18 20 mph 1024mb 47f 46f
2:50am 2.5ft 9s 4s 16 18 mph 1024.1mb 47f 46f
1:50am 2ft 10s 5s 11 13 mph 1024.4mb 47f 45f
12:50am 2.5ft 12s 6s 11 13 mph 1024.4mb 47f 45f
Mon 03/02 11:50pm 2.5ft 12s 6s 11
mph
1024.6mb 47f 45f
10:50pm 2.5ft 11s 6s 9
mph
1024.7mb 47f 46f
9:50pm 2.5ft 11s 6s 7 9 mph 1024.7mb 46f 45f
8:50pm 2.5ft 10s 6s 7
mph
1025mb 46f 45f
7:50pm 2.5ft 12s 6s 2 4 mph 1025.4mb 46f 45f
6:50pm 2.5ft 12s 6s 4 7 mph 1025.6mb 47f 45f
5:50pm 2.5ft 11s 6s 4 7 mph 1025.6mb 47f 45f
4:50pm 2.5ft 11s 6s 7
mph
1025.8mb 47f 45f
3:50pm 2.5ft 13s 6s 9 11 mph 1026.1mb 47f 46f
2:50pm 2.5ft 11s 6s 9 11 mph 1026.6mb 47f 46f
1:50pm 2.5ft 12s 6s 9
mph
1027.2mb 47f 45f
12:50pm 2.5ft 12s 6s 7
mph
1027.3mb 47f 46f
11:50am 3ft 11s 6s 4
mph
1027.6mb 47f 45f
10:50am 3ft 12s 6s 4 7 mph 1027.7mb 46f 45f
9:50am 3.5ft 11s 6s 9 11 mph 1027.8mb 46f 45f
8:50am 3.5ft 11s 6s 9 11 mph 1027.7mb 46f 44f
7:50am 3.5ft 12s 6s 7
mph
1027.6mb 46f 44f
6:50am 3.5ft 6s 5s 7
mph
1027.8mb 45f 45f
5:50am 3.5ft 12s 6s 7 9 mph 1028.3mb 45f 44f
4:50am 3ft 7s 5s 9
mph
1028.5mb 45f 44f
3:50am 3ft 7s 5s 9 11 mph 1028.9mb 45f 44f
2:50am 3.5ft 12s 5s 9 11 mph 1029.2mb 45f 44f
1:50am 3.5ft 7s 5s 4 7 mph 1030mb 45f 44f
12:50am 3.5ft 7s 5s 4
mph
1029.7mb 45f 45f
Sun 03/01 11:50pm 4ft 6s 5s 9 11 mph 1029.7mb 45f 45f
10:50pm 4.5ft 6s 5s 7 9 mph 1029.9mb 45f 45f
9:50pm 4.5ft 7s 5s 9 11 mph 1029.6mb 45f 45f
8:50pm 4.5ft 5s 5s 13 16 mph 1029.7mb 45f 45f
7:50pm 5ft 7s 5s 16 20 mph 1029.7mb 45f 45f
6:50pm 5ft 6s 5s 18 20 mph 1029.7mb 45f 45f
5:50pm 5ft 7s 5s 18 22 mph 1029.7mb 45f 44f
4:50pm 5ft 6s 5s 20 25 mph 1029.2mb 45f 44f
3:50pm 4.5ft 6s 5s 20 22 mph 1029mb 45f 44f
2:50pm 4.5ft 6s 5s 20 22 mph 1028.7mb 45f 45f
1:50pm 4.5ft 6s 5s 18 20 mph 1028.5mb 45f 45f
12:50pm 4.5ft 6s 5s 18 22 mph 1028.3mb 45f 44f
11:50am 5ft 6s 5s 20 22 mph 1028.1mb 45f 44f
10:50am 4.5ft 6s 5s 18 25 mph 1027.5mb 45f 44f
9:50am 3.5ft 6s 5s 16 20 mph 1027mb 45f 44f
8:50am 3.5ft 5s 5s 13 18 mph 1026.3mb 45f 42f
7:50am 3ft 5s 4s 11 13 mph 1025.3mb 46f 43f
6:50am 3ft 4s 4s 13 16 mph 1024.3mb 46f 44f
5:50am 3ft 5s 5s 13 16 mph 1023.9mb 46f 44f
4:50am 3ft 4s 5s 7 11 mph 1023.2mb 46f 44f
3:50am 2.5ft 5s 5s 9 11 mph 1023.4mb 46f 44f
2:50am 2.5ft 5s 5s 11 13 mph 1023.3mb 46f 44f
1:50am 2.5ft 9s 4s 11 13 mph 1024.4mb 46f 44f
12:50am 2.5ft 5s 5s 11 13 mph 1024.9mb 46f 44f
Sat 02/28 11:50pm 2.5ft 5s 5s 11 13 mph 1025.6mb 45f 44f
10:50pm 2.5ft 5s 5s 9 11 mph 1026mb 45f 43f
9:50pm 3.5ft 5s 5s 11
mph
1026.4mb 45f 43f
8:50pm 3ft 5s 5s 4 7 mph 1027mb 45f 42f
7:50pm 3.5ft 6s 5s 9 11 mph 1027mb 45f 43f
6:50pm 3.5ft 7s 5s 9 11 mph 1027.4mb 46f 43f
5:50pm 3.5ft 6s 5s 13
mph
1027.9mb 46f 42f
4:50pm 3.5ft 7s 5s 13 16 mph 1027.9mb 46f 43f
3:50pm 3.5ft 7s 5s 11 13 mph 1028.1mb 46f 43f
2:50pm 3.5ft 7s 5s 9 11 mph 1028.3mb 46f 43f
1:50pm 3.5ft 7s 5s 13 16 mph 1028.8mb 46f 43f
12:50pm 3ft 7s 5s 13 18 mph 1028.8mb 46f 43f
11:50am 3.5ft 7s 5s 16 18 mph 1028.9mb 46f 43f
10:50am 3ft 7s 4s 16 18 mph 1028.8mb 46f 43f
9:50am 3ft 10s 5s 13 16 mph 1028.7mb 46f 43f
8:50am 3ft 9s 5s 11 13 mph 1028.4mb 46f 43f
7:50am 3ft 10s 5s 13 16 mph 1028.4mb 45f 43f
6:50am 3ft 7s 4s 13 16 mph 1028.5mb 45f 43f
5:50am 3.5ft 10s 5s 13 16 mph 1028.8mb 45f 43f
4:50am 3ft 8s 5s 13 16 mph 1029.1mb 45f 44f
3:50am 3ft 10s 5s 13 16 mph 1029.4mb 45f 44f
2:50am 3ft 9s 5s 13 16 mph 1029.4mb 45f 44f
1:50am 3.5ft 10s 5s 11
mph
1029.3mb 45f 44f
12:50am 3ft 10s 5s 9 11 mph 1029.6mb 45f 44f
Fri 02/27 11:50pm 3ft 5s 5s 11 13 mph 1029.6mb 45f 44f
10:50pm 3.5ft 11s 5s 13 16 mph 1029.7mb 45f 44f
9:50pm 3.5ft 11s 5s 13 18 mph 1029.5mb 45f 44f
8:50pm 3.5ft 5s 5s 16 18 mph 1029.3mb 45f 44f
7:50pm 3.5ft 5s 5s 16 18 mph 1029.3mb 45f 44f
6:50pm 4ft 6s 5s 11 13 mph 1029.2mb 45f 44f
5:50pm 4.5ft 11s 5s 13 16 mph 1029.4mb 45f 44f